Dobrodošli na spletni strani vremenske postaje Senovo. Vse informacije so informativnega značaja, saj vremenska postaja ni del državne mreže meteoroloških postaj. AKTUALNIH OBVESTIL NI.


Posebna pozornost v zvezi z vremenskimi dogajanji ni potrebna.    Posebna pozornost v zvezi z vremenskimi dogajanji ni potrebna.

Pogled proti Armezu več informacij Pogled proti Armezu


Lisca več informacij Lisca


Radar strel več informacij blitzortung!


Radar padavin več informacij rain snow radar


Obiščite še:

Template documentation
and downloads

And another site



Weather Underground, zgodovina - Tekstovno

Dnevni povzetek za Februar 1, 2018 Enote:  Angleško    Metrično   Obe
« Predhodni Dan
Naslednji Dan »
Dnevni Tedenski Mesečni Letni Po meri
  Višja: Nižja: Povprečje:
Temperatura: TemperatureC °F 2.8 °F 7.9 °F
Točka rosišča: DewpointC °F 0.8 °F 3.7 °F
Vlažnost: Humidity % 55 % 76 %
Hitrost vetra: WindSpeedKMH mph 0.0 mph 4.2 mph
Sunki vetra: WindSpeedGustKMH mph - -
Veter:- - WSW
Zračni tlak: PressurehPa in 1001.9 in -
Padavine: 2.3 in    
Historical Graphs
 
 
Tabelarni podarki za Februar 1, 2018
Čas Temperatura Točka rosišča Zračni tlak Veter Hitrost vetra Sunki vetra Vlažnost Intenziteta padavin (urna)
TemperatureC °F DewpointC °F PressurehPa in Calm     Humidity % HourlyPrecipMM in
00:04 6.8 °F 3.9 °F 1011.1 in SSW 6.8 mph 13.7 mph 82 % 0.0 in
00:09 6.9 °F 4.1 °F 1011.1 in SSW 5.6 mph 10.1 mph 82 % 0.0 in
00:14 6.9 °F 4.1 °F 1010.0 in SSW 6.0 mph 10.1 mph 82 % 0.0 in
00:19 7.0 °F 3.9 °F 1010.0 in SSW 6.0 mph 12.6 mph 81 % 0.0 in
00:24 6.9 °F 4.1 °F 1010.0 in SSW 5.5 mph 12.6 mph 82 % 0.0 in
00:29 6.8 °F 3.9 °F 1010.0 in SSW 5.0 mph 9.3 mph 82 % 0.0 in
00:34 6.9 °F 4.1 °F 1010.0 in SSW 3.9 mph 7.9 mph 82 % 0.0 in
00:39 6.9 °F 4.1 °F 1010.0 in South 2.4 mph 5.0 mph 82 % 0.0 in
00:44 6.9 °F 4.1 °F 1010.0 in SSW 2.7 mph 6.9 mph 82 % 0.0 in
00:49 6.8 °F 3.9 °F 1010.0 in SSW 3.9 mph 8.7 mph 82 % 0.0 in
00:54 6.8 °F 3.9 °F 1010.0 in South 4.2 mph 8.7 mph 82 % 0.0 in
00:59 6.8 °F 3.9 °F 1009.0 in SSE 3.9 mph 6.1 mph 82 % 0.0 in
01:04 6.8 °F 3.9 °F 1009.0 in South 2.9 mph 9.0 mph 82 % 0.0 in
01:09 6.8 °F 3.9 °F 1009.0 in South 4.0 mph 9.0 mph 82 % 0.0 in
01:14 6.8 °F 3.9 °F 1009.0 in South 5.6 mph 10.1 mph 82 % 0.0 in
01:19 6.7 °F 3.8 °F 1009.0 in South 4.0 mph 10.1 mph 82 % 0.0 in
01:24 6.7 °F 3.8 °F 1009.0 in South 3.1 mph 6.9 mph 82 % 0.0 in
01:29 6.8 °F 3.9 °F 1009.0 in South 2.9 mph 6.9 mph 82 % 0.0 in
01:34 6.8 °F 3.9 °F 1009.0 in South 4.2 mph 10.1 mph 82 % 0.0 in
01:39 6.8 °F 3.9 °F 1009.0 in South 5.3 mph 10.1 mph 82 % 0.0 in
01:44 6.8 °F 3.9 °F 1010.0 in South 4.0 mph 7.6 mph 82 % 0.0 in
01:49 6.9 °F 4.1 °F 1010.0 in SSW 4.2 mph 9.7 mph 82 % 0.0 in
01:54 6.8 °F 3.9 °F 1010.0 in SSW 4.5 mph 9.7 mph 82 % 0.0 in
01:59 6.8 °F 3.9 °F 1009.0 in SSW 3.7 mph 6.4 mph 82 % 0.0 in
02:04 6.7 °F 3.8 °F 1009.0 in South 2.7 mph 6.4 mph 82 % 0.0 in
02:09 6.5 °F 3.7 °F 1009.0 in SSE 3.1 mph 6.4 mph 82 % 0.0 in
02:14 6.4 °F 3.6 °F 1009.0 in SSE 4.0 mph 6.4 mph 82 % 0.0 in
02:19 6.4 °F 3.6 °F 1009.0 in South 3.9 mph 6.4 mph 82 % 0.0 in
02:24 6.3 °F 3.4 °F 1009.0 in South 3.7 mph 6.1 mph 82 % 0.0 in
02:29 6.3 °F 3.4 °F 1008.0 in South 3.1 mph 6.4 mph 82 % 0.0 in
02:34 6.3 °F 3.4 °F 1008.0 in South 3.1 mph 6.4 mph 82 % 0.0 in
02:39 6.3 °F 3.4 °F 1008.0 in South 3.1 mph 5.5 mph 82 % 0.0 in
02:44 6.3 °F 3.4 °F 1008.0 in South 2.9 mph 5.0 mph 82 % 0.0 in
02:49 6.3 °F 3.6 °F 1008.0 in SSW 2.7 mph 5.0 mph 83 % 0.0 in
02:54 6.2 °F 3.5 °F 1008.0 in SSE 1.0 mph 5.0 mph 83 % 0.0 in
02:59 6.1 °F 3.4 °F 1008.0 in SSW 1.3 mph 5.5 mph 83 % 0.0 in
03:04 6.1 °F 3.4 °F 1008.0 in SSW 1.3 mph 5.5 mph 83 % 0.0 in
03:09 6.0 °F 3.3 °F 1008.0 in SW 1.0 mph 3.5 mph 83 % 0.0 in
03:14 5.9 °F 3.2 °F 1007.0 in WSW 2.1 mph 5.5 mph 83 % 0.0 in
03:19 5.7 °F 3.1 °F 1007.0 in WNW 3.2 mph 5.8 mph 83 % 0.0 in
03:24 5.6 °F 2.9 °F 1007.0 in WNW 2.9 mph 5.8 mph 83 % 0.0 in
03:29 5.4 °F 2.7 °F 1008.0 in West 1.0 mph 3.2 mph 83 % 0.0 in
03:34 5.3 °F 2.7 °F 1008.0 in WSW 0.3 mph 2.1 mph 83 % 0.0 in
03:39 5.3 °F 2.7 °F 1008.0 in SSW 0.3 mph 2.1 mph 83 % 0.0 in
03:44 5.2 °F 2.6 °F 1006.0 in Calm     83 % 0.0 in
03:49 5.2 °F 2.7 °F 1006.0 in Calm   5.8 mph 84 % 0.0 in
03:54 5.2 °F 2.7 °F 1006.0 in SE 2.3 mph 11.6 mph 84 % 0.0 in
03:59 5.4 °F 2.9 °F 1006.0 in SE 5.1 mph 11.6 mph 84 % 0.0 in
04:04 5.5 °F 3.0 °F 1006.0 in SE 3.2 mph 9.0 mph 84 % 0.0 in
04:09 5.5 °F 3.2 °F 1006.0 in SW 1.3 mph 5.0 mph 85 % 0.0 in
04:14 5.6 °F 3.3 °F 1007.0 in West 1.8 mph 5.0 mph 85 % 0.0 in
04:19 5.4 °F 3.1 °F 1007.0 in SW 1.9 mph 4.3 mph 85 % 0.0 in
04:24 5.4 °F 3.1 °F 1007.0 in SSE 0.8 mph 4.3 mph 85 % 0.0 in
04:29 5.3 °F 3.0 °F 1007.0 in SSW 1.3 mph 5.5 mph 85 % 0.0 in
04:34 5.3 °F 3.0 °F 1007.0 in SSW 3.4 mph 5.5 mph 85 % 0.0 in
04:39 5.0 °F 2.7 °F 1007.0 in South 3.9 mph 7.6 mph 85 % 0.0 in
04:44 4.8 °F 2.5 °F 1007.0 in WSW 3.1 mph 7.6 mph 85 % 0.0 in
04:49 4.6 °F 2.3 °F 1007.0 in NW 3.2 mph 5.5 mph 85 % 0.0 in
04:54 4.4 °F 2.1 °F 1007.0 in NW 3.4 mph 5.0 mph 85 % 0.0 in
04:59 4.4 °F 2.1 °F 1006.0 in NW 2.9 mph 4.7 mph 85 % 0.0 in
05:04 4.3 °F 2.0 °F 1006.0 in WNW 1.6 mph 4.7 mph 85 % 0.0 in
05:09 4.1 °F 1.8 °F 1006.0 in NNW 0.5 mph 3.2 mph 85 % 0.0 in
05:14 4.0 °F 1.7 °F 1006.0 in SSE 2.6 mph 6.9 mph 85 % 0.0 in
05:19 4.0 °F 1.7 °F 1006.0 in South 3.7 mph 6.9 mph 85 % 0.0 in
05:24 4.0 °F 1.7 °F 1006.0 in WNW 2.7 mph 6.1 mph 85 % 0.0 in
05:29 3.8 °F 1.7 °F 1006.0 in NNW 1.8 mph 4.3 mph 86 % 0.0 in
05:34 3.8 °F 1.7 °F 1006.0 in NNW 1.3 mph 5.5 mph 86 % 0.0 in
05:39 3.7 °F 1.6 °F 1006.0 in NW 2.4 mph 6.1 mph 86 % 0.0 in
05:44 3.6 °F 1.5 °F 1005.0 in NW 2.6 mph 6.1 mph 86 % 0.0 in
05:49 3.6 °F 1.5 °F 1005.0 in WNW 0.8 mph 4.3 mph 86 % 0.0 in
05:54 3.4 °F 1.3 °F 1005.0 in NNW 0.6 mph 4.0 mph 86 % 0.0 in
05:59 3.4 °F 1.3 °F 1005.0 in NNW 0.8 mph 4.0 mph 86 % 0.0 in
06:04 3.2 °F 1.1 °F 1005.0 in NNW 0.6 mph 4.0 mph 86 % 0.0 in
06:09 3.1 °F 1.0 °F 1005.0 in NW 0.2 mph 4.0 mph 86 % 0.0 in
06:14 3.0 °F 0.9 °F 1005.0 in Calm     86 % 0.0 in
06:19 2.9 °F 0.9 °F 1005.0 in WNW 0.2 mph 3.2 mph 87 % 0.0 in
06:24 2.8 °F 0.8 °F 1005.0 in West 1.3 mph 4.3 mph 87 % 0.0 in
06:29 2.8 °F 0.8 °F 1005.0 in WNW 1.8 mph 6.1 mph 87 % 0.0 in
06:34 2.9 °F 0.9 °F 1005.0 in NW 1.4 mph 6.1 mph 87 % 0.0 in
06:39 2.8 °F 0.8 °F 1005.0 in WNW 1.0 mph 3.2 mph 87 % 0.0 in
06:44 2.8 °F 0.8 °F 1005.0 in WNW 0.5 mph 3.5 mph 87 % 0.0 in
06:49 2.8 °F 1.0 °F 1005.0 in WNW 0.3 mph 3.5 mph 88 % 0.0 in
06:54 3.0 °F 1.1 °F 1005.0 in WNW 0.2 mph 2.1 mph 87 % 0.0 in
06:59 3.0 °F 1.2 °F 1005.0 in Calm     88 % 0.0 in
07:04 3.1 °F 1.3 °F 1005.0 in NW 1.1 mph 5.0 mph 88 % 0.0 in
07:09 3.3 °F 1.5 °F 1005.0 in NW 2.6 mph 5.8 mph 88 % 0.0 in
07:14 3.3 °F 1.5 °F 1005.0 in NW 1.3 mph 5.8 mph 88 % 0.0 in
07:19 3.3 °F 1.5 °F 1005.0 in NNW 0.2 mph 4.0 mph 88 % 0.0 in
07:24 3.4 °F 1.6 °F 1005.0 in NNW 1.1 mph 4.7 mph 88 % 0.0 in
07:29 3.7 °F 2.1 °F 1005.0 in NW 1.6 mph 4.7 mph 89 % 0.0 in
07:34 3.7 °F 2.1 °F 1005.0 in NW 0.6 mph 4.0 mph 89 % 0.0 in
07:39 3.9 °F 2.3 °F 1005.0 in Calm     89 % 0.0 in
07:44 4.1 °F 2.4 °F 1003.9 in Calm     89 % 0.0 in
07:49 4.2 °F 2.6 °F 1003.9 in Calm     89 % 0.0 in
07:54 4.3 °F 2.8 °F 1003.9 in Calm     90 % 0.0 in
07:59 4.3 °F 2.8 °F 1003.9 in Calm     90 % 0.0 in
08:05 4.4 °F 2.9 °F 1003.9 in Calm     90 % 0.0 in
08:10 4.6 °F 3.1 °F 1005.0 in Calm     90 % 0.0 in
08:15 4.7 °F 3.3 °F 1005.0 in Calm     91 % 0.0 in
08:20 4.9 °F 3.6 °F 1005.0 in Calm     91 % 0.0 in
08:25 5.0 °F 3.7 °F 1005.0 in Calm     91 % 0.0 in
08:30 5.3 °F 3.9 °F 1005.0 in WNW 0.6 mph 4.7 mph 91 % 0.0 in
08:35 5.7 °F 4.5 °F 1005.0 in NW 1.1 mph 5.0 mph 92 % 0.0 in
08:40 6.2 °F 5.0 °F 1005.0 in NNW 1.0 mph 5.0 mph 92 % 0.0 in
08:45 6.8 °F 5.6 °F 1005.0 in NW 1.6 mph 5.8 mph 92 % 0.0 in
08:50 7.5 °F 6.3 °F 1005.0 in WNW 3.1 mph 7.9 mph 92 % 0.0 in
08:55 7.9 °F 6.8 °F 1003.9 in West 2.9 mph 7.9 mph 93 % 0.0 in
09:00 8.2 °F 7.0 °F 1003.9 in WNW 2.1 mph 5.8 mph 92 % 0.0 in
09:05 8.5 °F 7.4 °F 1003.9 in West 2.4 mph 6.4 mph 93 % 0.0 in
09:10 8.7 °F 7.6 °F 1003.9 in West 2.4 mph 6.4 mph 93 % 0.0 in
09:15 8.9 °F 7.8 °F 1003.9 in WSW 3.5 mph 10.1 mph 93 % 0.0 in
09:20 9.1 °F 8.0 °F 1003.9 in WSW 5.5 mph 10.1 mph 93 % 0.0 in
09:25 9.2 °F 8.1 °F 1003.9 in SW 5.1 mph 9.7 mph 93 % 0.0 in
09:30 9.3 °F 8.2 °F 1003.9 in SW 4.8 mph 11.6 mph 93 % 0.0 in
09:35 9.4 °F 8.2 °F 1003.9 in SW 6.4 mph 12.6 mph 92 % 0.0 in
09:41 9.5 °F 8.3 °F 1005.0 in SW 7.9 mph 12.6 mph 92 % 0.0 in
09:46 9.5 °F 8.3 °F 1005.0 in SW 7.1 mph 11.9 mph 92 % 0.0 in
09:51 9.6 °F 8.2 °F 1005.0 in SW 6.6 mph 11.9 mph 91 % 0.0 in
09:56 9.7 °F 8.3 °F 1005.0 in SW 7.1 mph 12.6 mph 91 % 0.0 in
10:01 9.8 °F 8.2 °F 1005.0 in SW 8.0 mph 15.8 mph 90 % 0.0 in
10:06 9.8 °F 8.1 °F 1005.0 in SW 9.0 mph 16.6 mph 89 % 0.0 in
10:11 9.8 °F 7.9 °F 1006.0 in SW 9.3 mph 16.9 mph 88 % 0.0 in
10:16 9.9 °F 8.0 °F 1006.0 in SW 8.2 mph 16.9 mph 88 % 0.0 in
10:21 9.9 °F 7.7 °F 1006.0 in SW 6.6 mph 14.0 mph 86 % 0.0 in
10:26 10.0 °F 7.6 °F 1003.9 in SW 7.7 mph 21.6 mph 85 % 0.0 in
10:31 10.0 °F 7.4 °F 1003.9 in SW 8.4 mph 21.6 mph 84 % 0.0 in
10:36 10.0 °F 7.4 °F 1003.9 in SW 7.2 mph 12.6 mph 84 % 0.0 in
10:41 10.0 °F 7.2 °F 1005.0 in SW 7.7 mph 19.5 mph 83 % 0.0 in
10:46 10.0 °F 7.1 °F 1005.0 in SW 8.5 mph 19.5 mph 82 % 0.0 in
10:51 10.1 °F 7.2 °F 1005.0 in WSW 8.4 mph 16.6 mph 82 % 0.0 in
10:56 10.0 °F 6.9 °F 1003.9 in SW 7.6 mph 16.6 mph 81 % 0.0 in
11:02 10.0 °F 6.9 °F 1003.9 in SW 6.8 mph 13.0 mph 81 % 0.0 in
11:07 10.1 °F 6.8 °F 1003.9 in SW 8.0 mph 14.8 mph 80 % 0.0 in
11:12 10.2 °F 6.9 °F 1003.9 in SW 8.7 mph 17.2 mph 80 % 0.0 in
11:17 10.3 °F 6.8 °F 1003.9 in SW 7.7 mph 17.2 mph 79 % 0.0 in
11:22 10.3 °F 6.8 °F 1003.9 in SW 7.7 mph 14.0 mph 79 % 0.0 in
11:27 10.3 °F 6.6 °F 1005.0 in SW 8.7 mph 14.8 mph 78 % 0.0 in
11:32 10.4 °F 6.7 °F 1005.0 in SW 8.7 mph 15.8 mph 78 % 0.0 in
11:37 10.5 °F 6.6 °F 1005.0 in SW 7.2 mph 15.8 mph 77 % 0.0 in
11:42 10.7 °F 6.8 °F 1005.0 in SSW 8.0 mph 16.9 mph 77 % 0.0 in
11:47 11.2 °F 7.1 °F 1005.0 in SSW 10.0 mph 20.1 mph 76 % 0.0 in
11:52 11.7 °F 7.4 °F 1005.0 in SSW 12.2 mph 20.1 mph 75 % 0.0 in
11:57 12.1 °F 7.6 °F 1005.0 in SSW 13.8 mph 29.1 mph 74 % 0.0 in
12:02 12.0 °F 7.3 °F 1005.0 in SW 14.3 mph 29.1 mph 73 % 0.0 in
12:07 11.9 °F 7.0 °F 1005.0 in SW 11.7 mph 23.3 mph 72 % 0.0 in
12:12 11.8 °F 6.7 °F 1005.0 in SW 9.8 mph 20.6 mph 71 % 0.0 in
12:17 11.7 °F 6.4 °F 1005.0 in SW 10.3 mph 20.6 mph 70 % 0.0 in
12:22 11.5 °F 6.0 °F 1005.0 in SW 11.3 mph 19.8 mph 69 % 0.0 in
12:27 11.4 °F 5.7 °F 1003.9 in SW 10.5 mph 19.8 mph 68 % 0.0 in
12:32 11.3 °F 5.6 °F 1003.9 in SW 8.7 mph 14.0 mph 68 % 0.0 in
12:37 11.3 °F 5.4 °F 1003.9 in WSW 7.9 mph 14.0 mph 67 % 0.0 in
12:42 11.2 °F 5.3 °F 1003.9 in WSW 6.4 mph 12.2 mph 67 % 0.0 in
12:44 11.2 °F 5.3 °F 1003.9 in SW 6.0 mph 12.2 mph 67 % 0.0 in
12:49 11.1 °F 5.2 °F 1003.9 in SW 8.4 mph 24.5 mph 67 % 0.0 in
12:54 11.1 °F 5.0 °F 1003.9 in SW 12.1 mph 24.5 mph 66 % 0.0 in
12:59 11.1 °F 5.0 °F 1003.9 in WSW 12.2 mph 20.9 mph 66 % 0.0 in
13:04 11.1 °F 5.0 °F 1003.9 in SW 10.9 mph 25.6 mph 66 % 0.0 in
13:09 11.2 °F 5.1 °F 1003.9 in SW 11.4 mph 25.6 mph 66 % 0.0 in
13:14 11.3 °F 5.2 °F 1003.9 in WSW 13.0 mph 20.1 mph 66 % 0.0 in
13:19 11.3 °F 5.2 °F 1003.9 in WSW 14.2 mph 24.5 mph 66 % 0.0 in
13:24 11.3 °F 5.2 °F 1003.9 in SW 11.1 mph 24.5 mph 66 % 0.0 in
13:29 11.2 °F 5.1 °F 1002.9 in SW 7.1 mph 20.1 mph 66 % 0.0 in
13:35 11.2 °F 4.8 °F 1002.9 in WSW 10.5 mph 26.2 mph 65 % 0.0 in
13:40 11.1 °F 4.8 °F 1002.9 in WSW 10.5 mph 26.2 mph 65 % 0.0 in
13:45 11.1 °F 4.8 °F 1002.9 in WSW 7.7 mph 16.6 mph 65 % 0.0 in
13:50 11.0 °F 4.4 °F 1002.9 in WSW 7.6 mph 16.6 mph 64 % 0.0 in
13:55 10.9 °F 4.3 °F 1002.9 in WSW 6.9 mph 16.3 mph 64 % 0.0 in
14:00 10.8 °F 4.3 °F 1002.9 in WSW 7.2 mph 16.3 mph 64 % 0.0 in
14:05 10.8 °F 4.3 °F 1002.9 in WSW 6.8 mph 15.8 mph 64 % 0.0 in
14:10 10.7 °F 4.2 °F 1002.9 in WSW 7.2 mph 15.8 mph 64 % 0.0 in
14:15 10.7 °F 4.2 °F 1002.9 in SW 8.5 mph 14.0 mph 64 % 0.0 in
14:20 10.7 °F 4.2 °F 1002.9 in SSW 7.9 mph 13.7 mph 64 % 0.0 in
14:25 10.7 °F 4.2 °F 1001.9 in SSW 7.6 mph 20.9 mph 64 % 0.0 in
14:30 10.7 °F 4.2 °F 1001.9 in SW 6.8 mph 20.9 mph 64 % 0.0 in
14:35 10.7 °F 4.2 °F 1001.9 in SW 6.1 mph 17.2 mph 64 % 0.0 in
14:40 10.7 °F 4.2 °F 1001.9 in SW 7.7 mph 17.7 mph 64 % 0.0 in
14:45 10.7 °F 4.2 °F 1001.9 in SW 10.0 mph 24.8 mph 64 % 0.0 in
14:50 10.8 °F 4.1 °F 1001.9 in SW 11.1 mph 24.8 mph 63 % 0.0 in
14:55 10.8 °F 4.1 °F 1001.9 in SW 10.6 mph 21.2 mph 63 % 0.0 in
15:00 10.8 °F 3.8 °F 1001.9 in SW 8.7 mph 20.6 mph 62 % 0.0 in
15:05 10.8 °F 3.8 °F 1001.9 in SW 9.2 mph 19.8 mph 62 % 0.0 in
15:10 10.9 °F 3.7 °F 1001.9 in SW 9.5 mph 19.8 mph 61 % 0.0 in
15:15 10.9 °F 3.7 °F 1001.9 in SSW 9.5 mph 19.8 mph 61 % 0.0 in
15:20 10.9 °F 3.4 °F 1001.9 in SSW 10.0 mph 19.8 mph 60 % 0.0 in
15:25 10.9 °F 3.2 °F 1002.9 in SW 10.5 mph 25.9 mph 59 % 0.0 in
15:30 10.9 °F 3.2 °F 1002.9 in SW 12.1 mph 25.9 mph 59 % 0.0 in
15:35 11.0 °F 3.1 °F 1002.9 in SW 10.3 mph 19.1 mph 58 % 0.0 in
15:40 11.1 °F 2.9 °F 1002.9 in WSW 8.8 mph 16.3 mph 57 % 0.0 in
15:45 11.2 °F 3.0 °F 1002.9 in SW 10.1 mph 20.6 mph 57 % 0.0 in
15:50 11.1 °F 2.9 °F 1002.9 in SW 10.5 mph 21.2 mph 57 % 0.0 in
15:55 11.1 °F 2.7 °F 1002.9 in SW 10.6 mph 21.2 mph 56 % 0.0 in
16:00 11.0 °F 2.6 °F 1002.9 in SW 10.5 mph 19.5 mph 56 % 0.0 in
16:05 11.0 °F 2.3 °F 1002.9 in SW 11.4 mph 23.0 mph 55 % 0.0 in
16:10 11.0 °F 2.3 °F 1003.9 in SW 11.3 mph 23.0 mph 55 % 0.0 in
16:15 10.9 °F 2.2 °F 1003.9 in SW 9.5 mph 14.0 mph 55 % 0.0 in
16:20 10.9 °F 2.2 °F 1003.9 in SW 8.8 mph 16.9 mph 55 % 0.0 in
16:25 10.8 °F 2.1 °F 1002.9 in SW 7.2 mph 16.9 mph 55 % 0.0 in
16:30 10.7 °F 2.0 °F 1002.9 in SSW 6.1 mph 16.6 mph 55 % 0.0 in
16:35 10.6 °F 1.9 °F 1002.9 in SW 7.4 mph 16.6 mph 55 % 0.0 in
16:40 10.6 °F 1.9 °F 1002.9 in SW 8.0 mph 15.4 mph 55 % 0.0 in
16:45 10.5 °F 2.1 °F 1002.9 in SW 6.9 mph 13.0 mph 56 % 0.0 in
16:50 10.5 °F 2.1 °F 1002.9 in WSW 6.0 mph 13.0 mph 56 % 0.0 in
16:55 10.4 °F 2.0 °F 1002.9 in WSW 4.8 mph 11.6 mph 56 % 0.0 in
17:00 10.3 °F 1.9 °F 1002.9 in SW 4.0 mph 9.3 mph 56 % 0.0 in
17:05 10.3 °F 1.9 °F 1002.9 in SW 5.8 mph 10.1 mph 56 % 0.0 in
17:10 10.2 °F 2.1 °F 1002.9 in SW 5.6 mph 10.1 mph 57 % 0.0 in
17:15 10.2 °F 2.1 °F 1002.9 in WSW 4.5 mph 13.0 mph 57 % 0.0 in
17:20 10.2 °F 2.1 °F 1002.9 in WSW 7.2 mph 13.7 mph 57 % 0.0 in
17:25 10.1 °F 1.9 °F 1003.9 in WSW 8.4 mph 13.7 mph 57 % 0.0 in
17:30 10.1 °F 2.2 °F 1003.9 in WSW 6.3 mph 12.2 mph 58 % 0.0 in
17:35 10.1 °F 2.2 °F 1003.9 in SW 6.3 mph 13.0 mph 58 % 0.0 in
17:40 10.0 °F 2.1 °F 1002.9 in SW 7.1 mph 13.0 mph 58 % 0.0 in
17:46 9.9 °F 2.3 °F 1002.9 in SW 5.3 mph 10.5 mph 59 % 0.0 in
17:51 9.9 °F 2.3 °F 1002.9 in SW 4.7 mph 9.0 mph 59 % 0.0 in
17:56 9.9 °F 2.3 °F 1002.9 in WSW 5.1 mph 9.0 mph 59 % 0.0 in
18:01 9.8 °F 2.4 °F 1002.9 in WSW 4.5 mph 7.9 mph 60 % 0.0 in
18:06 9.8 °F 2.4 °F 1002.9 in WSW 4.0 mph 7.9 mph 60 % 0.0 in
18:11 9.7 °F 2.3 °F 1003.9 in WSW 3.2 mph 6.9 mph 60 % 0.0 in
18:16 9.7 °F 2.6 °F 1003.9 in WSW 4.3 mph 10.8 mph 61 % 0.0 in
18:21 9.6 °F 2.4 °F 1003.9 in SW 5.1 mph 10.8 mph 61 % 0.0 in
18:26 9.6 °F 2.4 °F 1003.9 in WSW 5.1 mph 13.7 mph 61 % 0.0 in
18:31 9.6 °F 2.4 °F 1003.9 in SW 5.8 mph 13.7 mph 61 % 0.0 in
18:36 9.6 °F 2.4 °F 1003.9 in SW 4.2 mph 7.9 mph 61 % 0.0 in
18:41 9.6 °F 2.7 °F 1002.9 in SW 4.3 mph 9.7 mph 62 % 0.0 in
18:46 9.6 °F 2.7 °F 1002.9 in SW 3.7 mph 9.7 mph 62 % 0.0 in
18:51 9.5 °F 2.6 °F 1002.9 in SW 1.9 mph 7.6 mph 62 % 0.0 in
18:56 9.5 °F 2.6 °F 1002.9 in WSW 2.6 mph 7.6 mph 62 % 0.0 in
19:01 9.5 °F 2.6 °F 1002.9 in WSW 2.3 mph 4.3 mph 62 % 0.0 in
19:06 9.4 °F 2.5 °F 1002.9 in WSW 1.4 mph 4.3 mph 62 % 0.0 in
19:11 9.4 °F 2.5 °F 1002.9 in West 1.4 mph 4.7 mph 62 % 0.0 in
19:16 9.4 °F 2.5 °F 1002.9 in West 2.7 mph 7.9 mph 62 % 0.0 in
19:21 9.4 °F 2.5 °F 1002.9 in West 2.3 mph 7.9 mph 62 % 0.0 in
19:26 9.3 °F 2.4 °F 1002.9 in WSW 0.3 mph 2.6 mph 62 % 0.0 in
19:31 9.2 °F 2.5 °F 1002.9 in WNW 0.6 mph 4.3 mph 63 % 0.0 in
19:42 9.2 °F 2.5 °F 1002.9 in North 0.5 mph   63 % 0.0 in
19:47 8.9 °F 2.4 °F 1002.9 in West 1.4 mph 4.0 mph 64 % 0.0 in
19:52 8.8 °F 2.3 °F 1002.9 in West 1.0 mph 4.0 mph 64 % 0.0 in
19:57 8.6 °F 2.2 °F 1001.9 in Calm   1.4 mph 64 % 0.0 in
20:02 8.5 °F 2.3 °F 1001.9 in Calm     65 % 0.0 in
20:07 8.4 °F 2.2 °F 1001.9 in Calm     65 % 0.0 in
20:12 8.2 °F 2.2 °F 1002.9 in Calm     66 % 0.0 in
20:17 8.2 °F 2.2 °F 1002.9 in Calm     66 % 0.0 in
20:22 8.0 °F 2.2 °F 1002.9 in Calm     67 % 0.0 in
20:27 7.9 °F 2.3 °F 1002.9 in WNW 0.2 mph 2.6 mph 68 % 0.0 in
20:32 7.9 °F 2.3 °F 1002.9 in WNW 0.2 mph 2.6 mph 68 % 0.0 in
20:37 7.9 °F 2.3 °F 1002.9 in Calm     68 % 0.0 in
20:42 7.7 °F 2.4 °F 1002.9 in Calm     69 % 0.0 in
20:47 7.7 °F 2.4 °F 1002.9 in Calm     69 % 0.0 in
20:52 7.6 °F 2.5 °F 1002.9 in Calm   2.6 mph 70 % 0.0 in
20:57 7.5 °F 2.4 °F 1003.9 in Calm   2.6 mph 70 % 0.0 in
21:02 7.5 °F 2.6 °F 1003.9 in Calm     71 % 0.0 in
21:07 7.4 °F 2.5 °F 1003.9 in Calm     71 % 0.0 in
21:12 7.3 °F 2.4 °F 1001.9 in Calm     71 % 0.0 in
21:17 7.3 °F 2.6 °F 1001.9 in Calm     72 % 0.3 in
21:22 7.2 °F 2.7 °F 1001.9 in Calm     73 % 0.3 in
21:27 7.2 °F 2.7 °F 1002.9 in NNE 1.0 mph 6.1 mph 73 % 0.3 in
21:32 7.1 °F 2.8 °F 1002.9 in West 2.6 mph 6.9 mph 74 % 0.3 in
21:37 7.1 °F 2.9 °F 1002.9 in West 3.2 mph 6.9 mph 75 % 0.3 in
21:42 7.1 °F 2.9 °F 1002.9 in West 1.8 mph 6.9 mph 75 % 0.3 in
21:47 7.1 °F 3.2 °F 1002.9 in West 1.4 mph 5.8 mph 76 % 0.3 in
21:52 7.1 °F 3.2 °F 1002.9 in WSW 1.3 mph 5.8 mph 76 % 0.3 in
21:57 7.1 °F 3.3 °F 1002.9 in SSW 0.6 mph 3.5 mph 77 % 0.5 in
22:02 7.1 °F 3.5 °F 1002.9 in South 0.5 mph 3.5 mph 78 % 0.5 in
22:07 7.1 °F 3.5 °F 1002.9 in Calm     78 % 0.8 in
22:12 7.1 °F 3.7 °F 1002.9 in Calm     79 % 1.0 in
22:17 7.1 °F 3.7 °F 1002.9 in NNW 0.2 mph 3.5 mph 79 % 1.0 in
22:22 7.1 °F 3.9 °F 1002.9 in NNW 0.2 mph 3.5 mph 80 % 1.0 in
22:27 7.1 °F 4.1 °F 1002.9 in Calm     81 % 1.0 in
22:32 7.1 °F 4.1 °F 1002.9 in Calm   2.1 mph 81 % 1.3 in
22:37 7.1 °F 4.2 °F 1002.9 in Calm   2.1 mph 82 % 1.3 in
22:42 7.1 °F 4.2 °F 1001.9 in Calm     82 % 1.3 in
22:47 7.1 °F 4.4 °F 1001.9 in Calm     83 % 1.3 in
22:52 7.1 °F 4.4 °F 1001.9 in Calm     83 % 1.3 in
22:57 7.1 °F 4.4 °F 1002.9 in Calm     83 % 1.3 in
23:02 7.0 °F 4.5 °F 1002.9 in Calm     84 % 1.3 in
23:07 7.0 °F 4.5 °F 1002.9 in Calm     84 % 1.3 in
23:12 7.0 °F 4.5 °F 1002.9 in Calm     84 % 1.0 in
23:17 7.0 °F 4.5 °F 1002.9 in Calm   2.6 mph 84 % 1.0 in
23:18 7.0 °F 4.5 °F 1002.9 in WNW 0.2 mph 2.6 mph 84 % 1.0 in
23:23 7.0 °F 4.7 °F 1002.9 in WNW 0.5 mph 3.5 mph 85 % 1.0 in
23:28 7.0 °F 4.7 °F 1002.9 in WNW 0.3 mph 3.5 mph 85 % 1.0 in
23:33 7.0 °F 4.7 °F 1002.9 in SE 0.5 mph 4.0 mph 85 % 0.8 in
23:38 7.0 °F 4.7 °F 1002.9 in South 0.5 mph 4.0 mph 85 % 0.8 in
23:43 7.0 °F 4.8 °F 1001.9 in SW 1.1 mph 4.0 mph 86 % 0.8 in
23:48 6.9 °F 4.7 °F 1001.9 in WSW 1.6 mph 4.3 mph 86 % 0.8 in
23:53 6.9 °F 4.7 °F 1001.9 in West 0.6 mph 4.3 mph 86 % 0.8 in
23:58 6.9 °F 4.9 °F 1001.9 in Calm     87 % 0.5 in
Vremenska postaja Senovo
Podatki zbrani iz Weather Underground - 3 mb

Script developed by  Jim McMurry - jmcmurry@mwt.net Adapted for the template by  Wim van der Kuil - Leuven-Template.eu

Vremenski podatki so objavljeni na:

European Weather Network

WeatherCloud

Weather Underground

AWEKAS

HAMweather, WeatherForYou, PWS Weather

MapView

Geostik

Slovenia weather network

Oprema, ki se uporablja:

Vremenski program
Cumulus

Vremenski server
Asus

Cumulus

Asus